LFSP weather

Public forecast

Using degrees Celsius for public forecast. Weather courtesy of forecast.io.

Closest aviation weather report (METAR) to Pontarlier Airfield

Closest report is Les Eplatures Airport, 21.9 nm (40.6 km) ENE. Retrieved 2020/08/11 00:50 UTC (18 minutes ago):

LSGC 110050Z AUTO 00000KT CAVOK 15/13 Q1020

Closest aviation forecast (TAF) to Pontarlier Airfield

Forecast is more than 6 hours old.

Closest forecast is Payerne Air Base, 24.4 nm (45.2 km) E. Retrieved 2020/08/10 17:00 UTC (8 hours ago):

TAF LSMP 101625Z 1017/1123 VRB03KT CAVOK PROB30 TEMPO 1022/1101 27013KT 9999 TSRA SCT060CB